地図

経路データ

SID SEASON NUMBER BASIN SUBBASIN NAME ISO_TIME NATURE LAT LON WMO_WIND WMO_PRES WMO_AGENCY TRACK_TYPE DIST2LAND LANDFALL IFLAG USA_AGENCY USA_ATCF_ID USA_LAT USA_LON USA_RECORD USA_STATUS USA_WIND USA_PRES USA_SSHS USA_R34_NE USA_R34_SE USA_R34_SW USA_R34_NW USA_R50_NE USA_R50_SE USA_R50_SW USA_R50_NW USA_R64_NE USA_R64_SE USA_R64_SW USA_R64_NW USA_POCI USA_ROCI USA_RMW USA_EYE TOKYO_LAT TOKYO_LON TOKYO_GRADE TOKYO_WIND TOKYO_PRES TOKYO_R50_DIR TOKYO_R50_LONG TOKYO_R50_SHORT TOKYO_R30_DIR TOKYO_R30_LONG TOKYO_R30_SHORT TOKYO_LAND CMA_LAT CMA_LON CMA_CAT CMA_WIND CMA_PRES HKO_LAT HKO_LON HKO_CAT HKO_WIND HKO_PRES NEWDELHI_LAT NEWDELHI_LON NEWDELHI_GRADE NEWDELHI_WIND NEWDELHI_PRES NEWDELHI_CI NEWDELHI_DP NEWDELHI_POCI REUNION_LAT REUNION_LON REUNION_TYPE REUNION_WIND REUNION_PRES REUNION_TNUM REUNION_CI REUNION_RMW REUNION_R34_NE REUNION_R34_SE REUNION_R34_SW REUNION_R34_NW REUNION_R50_NE REUNION_R50_SE REUNION_R50_SW REUNION_R50_NW REUNION_R64_NE REUNION_R64_SE REUNION_R64_SW REUNION_R64_NW BOM_LAT BOM_LON BOM_TYPE BOM_WIND BOM_PRES BOM_TNUM BOM_CI BOM_RMW BOM_R34_NE BOM_R34_SE BOM_R34_SW BOM_R34_NW BOM_R50_NE BOM_R50_SE BOM_R50_SW BOM_R50_NW BOM_R64_NE BOM_R64_SE BOM_R64_SW BOM_R64_NW BOM_ROCI BOM_POCI BOM_EYE BOM_POS_METHOD BOM_PRES_METHOD NADI_LAT NADI_LON NADI_CAT NADI_WIND NADI_PRES WELLINGTON_LAT WELLINGTON_LON WELLINGTON_WIND WELLINGTON_PRES DS824_LAT DS824_LON DS824_STAGE DS824_WIND DS824_PRES TD9636_LAT TD9636_LON TD9636_STAGE TD9636_WIND TD9636_PRES TD9635_LAT TD9635_LON TD9635_WIND TD9635_PRES TD9635_ROCI NEUMANN_LAT NEUMANN_LON NEUMANN_CLASS NEUMANN_WIND NEUMANN_PRES MLC_LAT MLC_LON MLC_CLASS MLC_WIND MLC_PRES USA_GUST BOM_GUST BOM_GUST_PER REUNION_GUST REUNION_GUST_PER USA_SEAHGT USA_SEARAD_NE USA_SEARAD_SE USA_SEARAD_SW USA_SEARAD_NW STORM_SPEED STORM_DIR
1952011S14042 1952 3 SI MM NOT_NAMED 1952-01-11 06:00:00 TS -14.2000 42.2000 main 154 141 O________OO___ jtwc_sh SH061952 -14.2000 42.2000 -1 -14.2000 42.2000 TC 25 -14.2000 42.2000 7 3 224
1952011S14042 1952 3 SI MM NOT_NAMED 1952-01-11 09:00:00 TS -14.3030 42.0981 main 141 129 P________PP___ SH061952 -14.2975 42.1025 -1 -14.2975 42.1025 TC 25 -14.3141 42.0892 7 3 224
1952011S14042 1952 3 SI MM NOT_NAMED 1952-01-11 12:00:00 TS -14.4075 41.9942 main 129 118 O________OP___ jtwc_sh SH061952 -14.4000 42.0000 -1 -14.4000 42.0000 TC 25 -14.4226 41.9826 7 3 224
1952011S14042 1952 3 SI MM NOT_NAMED 1952-01-11 15:00:00 TS -14.5116 41.8899 main 118 107 P________PP___ SH061952 -14.5075 41.8925 -1 -14.5075 41.8925 TC 30 -14.5197 41.8848 7 3 225
1952011S14042 1952 3 SI MM NOT_NAMED 1952-01-11 18:00:00 TS -14.6000 41.8000 main 107 96 O________OO___ jtwc_sh SH061952 -14.6000 41.8000 -1 -14.6000 41.8000 TC 35 -14.6000 41.8000 2 2 225
1952011S14042 1952 3 SI MM NOT_NAMED 1952-01-11 21:00:00 TS -14.6584 41.7388 main 96 96 P________PP___ SH061952 -14.6575 41.7425 -1 -14.6575 41.7425 TC 35 -14.6603 41.7315 2 1 226
1952011S14042 1952 3 SI MM NOT_NAMED 1952-01-12 00:00:00 TS -14.7025 41.6925 main 96 86 O________OP___ jtwc_sh SH061952 -14.7000 41.7000 -1 -14.7000 41.7000 TC 35 -14.7075 41.6774 2 1 226
1952011S14042 1952 3 SI MM NOT_NAMED 1952-01-12 03:00:00 TS -14.7503 41.6399 main 86 86 P________PP___ SH061952 -14.7500 41.6425 -1 -14.7500 41.6425 TC 35 -14.7509 41.6346 2 1 222
1952011S14042 1952 3 SI MM NOT_NAMED 1952-01-12 06:00:00 TS -14.8000 41.6000 main 86 86 O________OO___ jtwc_sh SH061952 -14.8000 41.6000 -1 -14.8000 41.6000 TC 35 -14.8000 41.6000 2 1 198
1952011S14042 1952 3 SI MM NOT_NAMED 1952-01-12 09:00:00 TS -14.8496 41.5906 main 86 86 P________PP___ SH061952 -14.8425 41.6000 -1 -14.8425 41.6000 TC 35 -14.8637 41.5718 2 1 184
1952011S14042 1952 3 SI MM NOT_NAMED 1952-01-12 12:00:00 TS -14.9117 41.5833 main 86 85 O________OP___ jtwc_sh SH061952 -14.9000 41.6000 -1 -14.9000 41.6000 TC 35 -14.9350 41.5500 2 2 192
1952011S14042 1952 3 SI MM NOT_NAMED 1952-01-12 15:00:00 TS -14.9996 41.5477 main 75 75 P________PP___ SH061952 -14.9925 41.5575 -1 -14.9925 41.5575 TC 35 -15.0137 41.5281 2 2 204
1952011S14042 1952 3 SI MM NOT_NAMED 1952-01-12 18:00:00 TS -15.1000 41.5000 main 76 76 O________OO___ jtwc_sh SH061952 -15.1000 41.5000 -1 -15.1000 41.5000 TC 35 -15.1000 41.5000 2 2 204
1952011S14042 1952 3 SI MM NOT_NAMED 1952-01-12 21:00:00 TS -15.1976 41.4524 main 78 68 P________PP___ SH061952 -15.2000 41.4500 -1 -15.2000 41.4500 TC 35 -15.1928 41.4572 2 2 206
1952011S14042 1952 3 SI MM NOT_NAMED 1952-01-13 00:00:00 TS -15.2975 41.4025 main 72 72 O________OP___ jtwc_sh SH061952 -15.3000 41.4000 -1 -15.3000 41.4000 TC 35 -15.2925 41.4075 2 2 206
1952011S14042 1952 3 SI MM NOT_NAMED 1952-01-13 03:00:00 TS -15.3986 41.3513 main 78 69 P________PP___ SH061952 -15.4000 41.3500 -1 -15.4000 41.3500 TC 35 -15.3959 41.3541 2 2 205
1952011S14042 1952 3 SI MM NOT_NAMED 1952-01-13 06:00:00 TS -15.5000 41.3000 main 75 75 O________OO___ jtwc_sh SH061952 -15.5000 41.3000 -1 -15.5000 41.3000 TC 35 -15.5000 41.3000 2 2 206
1952011S14042 1952 3 SI MM NOT_NAMED 1952-01-13 09:00:00 TS -15.6000 41.2486 main 68 68 P________PP___ SH061952 -15.6000 41.2500 -1 -15.6000 41.2500 TC 35 -15.6000 41.2459 2 2 207
1952011S14042 1952 3 SI MM NOT_NAMED 1952-01-13 12:00:00 TS -15.7000 41.1975 main 72 72 O________OP___ jtwc_sh SH061952 -15.7000 41.2000 -1 -15.7000 41.2000 TC 35 -15.7000 41.1925 2 2 207
1952011S14042 1952 3 SI MM NOT_NAMED 1952-01-13 15:00:00 TS -15.8000 41.1476 main 69 69 P________PP___ SH061952 -15.8000 41.1500 -1 -15.8000 41.1500 TC 35 -15.8000 41.1428 2 2 207
1952011S14042 1952 3 SI MM NOT_NAMED 1952-01-13 18:00:00 TS -15.9000 41.1000 main 77 77 O________OO___ jtwc_sh SH061952 -15.9000 41.1000 -1 -15.9000 41.1000 TC 35 -15.9000 41.1000 2 2 204
1952011S14042 1952 3 SI MM NOT_NAMED 1952-01-13 21:00:00 TS -16.0014 41.0523 main 82 72 P________PP___ SH061952 -16.0000 41.0425 -1 -16.0000 41.0425 TC 35 -16.0041 41.0718 2 2 201
1952011S14042 1952 3 SI MM NOT_NAMED 1952-01-14 00:00:00 TS -16.1025 41.0167 main 78 78 O________OP___ jtwc_sh SH061952 -16.1000 41.0000 -1 -16.1000 41.0000 TC 35 -16.1075 41.0500 2 2 192
1952011S14042 1952 3 SI MM NOT_NAMED 1952-01-14 03:00:00 TS -16.2024 41.0093 main 85 85 P________PP___ SH061952 -16.2000 41.0000 -1 -16.2000 41.0000 TC 35 -16.2072 41.0281 2 2 183
1952011S14042 1952 3 SI MM NOT_NAMED 1952-01-14 06:00:00 TS -16.3000 41.0000 main 92 92 O________OO___ jtwc_sh SH061952 -16.3000 41.0000 -1 -16.3000 41.0000 TC 35 -16.3000 41.0000 2 2 194
1952011S14042 1952 3 SI MM NOT_NAMED 1952-01-14 09:00:00 TS -16.3977 40.9547 main 100 92 P________PP___ SH061952 -16.4075 40.9575 -1 -16.4075 40.9575 TC 35 -16.3781 40.9491 2 2 207
1952011S14042 1952 3 SI MM NOT_NAMED 1952-01-14 12:00:00 TS -16.4833 40.8975 main 100 91 O________OP___ jtwc_sh SH061952 -16.5000 40.9000 -1 -16.5000 40.9000 TC 35 -16.4500 40.8925 2 2 218
1952011S14042 1952 3 SI MM NOT_NAMED 1952-01-14 15:00:00 TS -16.5406 40.8416 main 91 91 P________PP___ SH061952 -16.5500 40.8425 -1 -16.5500 40.8425 TC 35 -16.5219 40.8397 2 2 220
1952011S14042 1952 3 SI MM NOT_NAMED 1952-01-14 18:00:00 TS -16.6000 40.8000 main 96 96 O________OO___ jtwc_sh SH061952 -16.6000 40.8000 -1 -16.6000 40.8000 TC 35 -16.6000 40.8000 2 2 191
1952011S14042 1952 3 SI MM NOT_NAMED 1952-01-14 21:00:00 TS -16.6912 40.7929 main 102 102 P________PP___ SH061952 -16.6925 40.7925 -1 -16.6925 40.7925 TC 35 -16.6887 40.7937 2 2 0
1952011S14042 1952 3 SI MM NOT_NAMED 1952-01-15 00:00:00 TS -16.7950 40.8000 main 108 108 O________OP___ jtwc_sh SH061952 -16.8000 40.8000 -1 -16.8000 40.8000 TC 35 -16.7850 40.7999 2 2 176
1952011S14042 1952 3 SI MM NOT_NAMED 1952-01-15 03:00:00 TS -16.8962 40.8070 main 115 115 P________PP___ SH061952 -16.9000 40.8075 -1 -16.9000 40.8075 TC 35 -16.8887 40.8062 2 2 176
1952011S14042 1952 3 SI MM NOT_NAMED 1952-01-15 06:00:00 TS -17.0000 40.8000 main 120 120 O________OO___ jtwc_sh SH061952 -17.0000 40.8000 -1 -17.0000 40.8000 TC 35 -17.0000 40.8000 2 2 192
1952011S14042 1952 3 SI MM NOT_NAMED 1952-01-15 09:00:00 TS -17.1009 40.7571 main 125 117 P________PP___ SH061952 -17.0925 40.7575 -1 -17.0925 40.7575 TC 35 -17.1178 40.7563 2 2 204
1952011S14042 1952 3 SI MM NOT_NAMED 1952-01-15 12:00:00 TS -17.2142 40.7000 main 123 123 O________OP___ jtwc_sh SH061952 -17.2000 40.7000 -1 -17.2000 40.7000 TC 35 -17.2425 40.7001 2 3 204
1952011S14042 1952 3 SI MM NOT_NAMED 1952-01-15 15:00:00 TS -17.3570 40.6429 main 131 131 P________PP___ SH061952 -17.3500 40.6425 -1 -17.3500 40.6425 TC 35 -17.3710 40.6438 2 3 198
1952011S14042 1952 3 SI MM NOT_NAMED 1952-01-15 18:00:00 TS -17.5000 40.6000 main 140 140 O________OO___ jtwc_sh SH061952 -17.5000 40.6000 -1 -17.5000 40.6000 TC 35 -17.5000 40.6000 2 3 193
1952011S14042 1952 3 SI MM NOT_NAMED 1952-01-15 21:00:00 TS -17.6097 40.5902 main 149 149 P________PP___ SH061952 -17.6000 40.5925 -1 -17.6000 40.5925 TC 35 -17.6291 40.5856 2 2 186
1952011S14042 1952 3 SI MM NOT_NAMED 1952-01-16 00:00:00 TS -17.7192 40.5950 main 158 158 O________OP___ jtwc_sh SH061952 -17.7000 40.6000 -1 -17.7000 40.6000 TC 35 -17.7575 40.5849 2 3 0
1952011S14042 1952 3 SI MM NOT_NAMED 1952-01-16 03:00:00 TS -17.8607 40.5973 main 178 178 P________PP___ SH061952 -17.8500 40.6000 -1 -17.8500 40.6000 TC 35 -17.8822 40.5918 2 3 0
1952011S14042 1952 3 SI MM NOT_NAMED 1952-01-16 06:00:00 TS -18.0000 40.6000 main 188 188 O________OO___ jtwc_sh SH061952 -18.0000 40.6000 -1 -18.0000 40.6000 TC 35 -18.0000 40.6000 2 2 0
1952011S14042 1952 3 SI MM NOT_NAMED 1952-01-16 09:00:00 TS -18.1087 40.6000 main 198 198 P________PP___ SH061952 -18.1075 40.6000 -1 -18.1075 40.6000 TC 35 -18.1112 40.6000 2 2 176
1952011S14042 1952 3 SI MM NOT_NAMED 1952-01-16 12:00:00 TS -18.2050 40.6000 main 208 208 O________OP___ jtwc_sh SH061952 -18.2000 40.6000 -1 -18.2000 40.6000 TC 35 -18.2150 40.6000 2 2 172
1952011S14042 1952 3 SI MM NOT_NAMED 1952-01-16 15:00:00 TS -18.3088 40.6000 main 215 215 P________PP___ SH061952 -18.3075 40.6000 -1 -18.3075 40.6000 TC 35 -18.3112 40.6000 2 2 0
1952011S14042 1952 3 SI MM NOT_NAMED 1952-01-16 18:00:00 TS -18.4000 40.6000 main 223 223 O________OO___ jtwc_sh SH061952 -18.4000 40.6000 -1 -18.4000 40.6000 TC 35 -18.4000 40.6000 2 2 0
1952011S14042 1952 3 SI MM NOT_NAMED 1952-01-16 21:00:00 TS -18.4594 40.6000 main 231 231 P________PP___ SH061952 -18.4500 40.6000 -1 -18.4500 40.6000 TC 35 -18.4781 40.6000 2 1 169
1952011S14042 1952 3 SI MM NOT_NAMED 1952-01-17 00:00:00 TS -18.5167 40.6000 main 231 231 O________OP___ jtwc_sh SH061952 -18.5000 40.6000 -1 -18.5000 40.6000 TC 35 -18.5500 40.6000 2 1 0
1952011S14042 1952 3 SI MM NOT_NAMED 1952-01-17 03:00:00 TS -18.6023 40.6000 main 239 239 P________PP___ SH061952 -18.5925 40.6000 -1 -18.5925 40.6000 TC 35 -18.6219 40.6000 2 3 205
1952011S14042 1952 3 SI MM NOT_NAMED 1952-01-17 06:00:00 TS -18.7846 40.4692 reunion main 250 243 O____O___OO___ jtwc_sh SH061952 -18.7000 40.6000 -1 -19.8000 38.9000 99 9.90000 -18.7000 40.6000 TC 35 -18.7000 40.6000 2 4 211
1952011S14042 1952 3 SI MM NOT_NAMED 1952-01-17 09:00:00 TS -18.9539 40.3761 main 262 257 P____P___PP___ SH061952 -18.8000 40.6000 -1 -19.8836 39.0330 99 -18.8000 40.6000 TC 35 -18.7969 40.6000 2 4 204
1952011S14042 1952 3 SI MM NOT_NAMED 1952-01-17 12:00:00 TS -19.1135 40.3133 main 267 267 O____P___OP___ jtwc_sh SH061952 -18.9000 40.6000 -1 -19.9675 39.1665 99 -18.9000 40.6000 TC 35 -18.9000 40.6000 2 3 197
1952011S14042 1952 3 SI MM NOT_NAMED 1952-01-17 15:00:00 TS -19.2676 40.2752 main 286 286 P____P___PP___ SH061952 -19.0075 40.6000 -1 -20.0521 39.3009 99 -19.0075 40.6000 TC 35 -19.0031 40.6000 2 2 185
1952011S14042 1952 3 SI MM NOT_NAMED 1952-01-17 18:00:00 TS -19.3595 40.3091 main 296 296 O____P___OO___ jtwc_sh SH061952 -19.1000 40.6000 -1 -20.1378 39.4366 99 -19.1000 40.6000 TC 35 -19.1000 40.6000 2 2 155
1952011S14042 1952 3 SI MM NOT_NAMED 1952-01-17 21:00:00 TS -19.4238 40.3425 main 296 296 P____P___PP___ SH061952 -19.1500 40.6000 -1 -20.2251 39.5740 99 -19.1500 40.6000 TC 35 -19.1700 40.5960 2 1 154
1952011S14042 1952 3 SI MM NOT_NAMED 1952-01-18 00:00:00 TS -19.4873 40.3765 main 311 311 O____P___OP___ jtwc_sh SH061952 -19.2000 40.6000 -1 -20.3142 39.7134 99 -19.2000 40.6000 TC 35 -19.2350 40.5925 2 2 154
1952011S14042 1952 3 SI MM NOT_NAMED 1952-01-18 03:00:00 TS -19.5708 40.4120 main 321 321 P____P___PP___ SH061952 -19.2850 40.6000 -1 -20.4058 39.8553 99 -19.2850 40.6000 TC 35 -19.3075 40.5928 2 2 158
1952011S14042 1952 3 SI MM NOT_NAMED 1952-01-18 06:00:00 TS -19.6750 40.4500 reunion main 336 331 O____O___OO___ jtwc_sh SH061952 -19.4000 40.6000 -1 -20.5000 40.0000 99 9.90000 -19.4000 40.6000 TC 35 -19.4000 40.6000 2 2 165
1952011S14042 1952 3 SI MM NOT_NAMED 1952-01-18 09:00:00 TS -19.8058 40.4867 main 346 346 P____P___PP___ SH061952 -19.5425 40.5925 -1 -20.5978 40.1480 99 -19.5425 40.5925 TC 35 -19.5406 40.6137 2 3 165
1952011S14042 1952 3 SI MM NOT_NAMED 1952-01-18 12:00:00 TS -19.9503 40.5336 main 349 334 O____P___OP___ jtwc_sh SH061952 -19.7000 40.6000 -1 -20.7014 40.2994 99 -19.7000 40.6000 TC 35 -19.7000 40.6350 2 3 160
1952011S14042 1952 3 SI MM NOT_NAMED 1952-01-18 15:00:00 TS -20.1007 40.6009 main 334 320 P____P___PP___ SH061952 -19.8650 40.6425 -1 -20.8136 40.4547 99 -19.8650 40.6425 TC 35 -19.8594 40.6637 2 3 154
1952011S14042 1952 3 SI MM NOT_NAMED 1952-01-18 18:00:00 TS -20.2343 40.6785 main 320 315 O____P___OO___ jtwc_sh SH061952 -20.0000 40.7000 -1 -20.9372 40.6142 99 -20.0000 40.7000 TC 35 -20.0000 40.7000 2 3 146
1952011S14042 1952 3 SI MM NOT_NAMED 1952-01-18 21:00:00 TS -20.3074 40.7503 main 306 301 P____P___PP___ SH061952 -20.0575 40.7500 -1 -21.0749 40.7780 99 -20.0575 40.7500 TC 35 -20.0396 40.7229 2 2 135
1952011S14042 1952 3 SI MM NOT_NAMED 1952-01-19 00:00:00 TS -20.3742 40.8256 main 301 288 O____P___OP___ jtwc_sh SH061952 -20.1000 40.8000 -1 -21.2294 40.9467 99 -20.1000 40.8000 TC 35 -20.0674 40.7557 2 2 136
1952011S14042 1952 3 SI MM NOT_NAMED 1952-01-19 03:00:00 TS -20.4587 40.9004 main 288 274 P____P___PP___ SH061952 -20.1475 40.8351 -1 -21.4036 41.1206 99 -20.1475 40.8351 TC 35 -20.1365 40.8106 2 3 147
1952011S14042 1952 3 SI MM NOT_NAMED 1952-01-19 06:00:00 TS -20.6250 41.0000 reunion main 274 255 O____O___OO___ jtwc_sh SH061952 -20.3000 40.9000 -1 -21.6000 41.3000 99 9.90000 -20.3000 40.9000 TC 35 -20.3000 40.9000 2 5 155
1952011S14042 1952 3 SI MM NOT_NAMED 1952-01-19 09:00:00 TS -20.9301 41.1330 main 255 220 P____P___PP___ SH061952 -20.6475 41.0275 -1 -21.7887 41.4504 99 -20.6475 41.0275 TC 35 -20.6366 41.0266 2 7 158
1952011S14042 1952 3 SI MM NOT_NAMED 1952-01-19 12:00:00 TS -21.3159 41.2980 main 220 183 O____P___OP___ jtwc_sh SH061952 -21.1000 41.2000 -1 -21.9963 41.6025 99 -21.1000 41.2000 TC 35 -21.0675 41.1897 2 9 158
1952011S14042 1952 3 SI MM NOT_NAMED 1952-01-19 15:00:00 TS -21.7201 41.4826 main 183 154 P____P___PP___ SH061952 -21.5575 41.3925 -1 -22.2257 41.7626 99 -21.5575 41.3925 TC 35 -21.5397 41.3829 2 9 156
1952011S14042 1952 3 SI MM NOT_NAMED 1952-01-19 18:00:00 TS -22.1200 41.6842 main 154 134 O____P___OO___ jtwc_sh SH061952 -22.0000 41.6000 -1 -22.4798 41.9366 99 -22.0000 41.6000 TC 35 -22.0000 41.6000 2 8 154
1952011S14042 1952 3 SI MM NOT_NAMED 1952-01-19 21:00:00 TS -22.4533 41.8689 main 135 121 P____P___PP___ SH061952 -22.3649 41.7853 -1 -22.7615 42.1310 99 -22.3649 41.7853 TC 30 -22.3220 41.7742 2 8 151
1952011S14042 1952 3 SI MM NOT_NAMED 1952-01-20 00:00:00 TS -22.7762 42.0822 main 125 114 O____P___OP___ jtwc_sh SH061952 -22.7000 42.0000 -1 -23.0735 42.3520 99 -22.7000 42.0000 TC 25 -22.6312 41.9768 2 8 147
1952011S14042 1952 3 SI MM NOT_NAMED 1952-01-20 03:00:00 TS -23.1007 42.3322 main 117 94 P____P___PP___ SH061952 -23.0047 42.2410 -1 -23.4188 42.6061 99 -23.0047 42.2410 TC 25 -22.9748 42.2408 2 9 143
1952011S14042 1952 3 SI MM NOT_NAMED 1952-01-20 06:00:00 TS -23.5000 42.6750 reunion main 94 60 O____O___OO___ jtwc_sh SH061952 -23.4000 42.6000 -1 -23.8000 42.9000 99 9.90000 -23.4000 42.6000 TC 25 -23.4000 42.6000 1 12 141
1952011S14042 1952 3 SI MM NOT_NAMED 1952-01-20 09:00:00 TS -24.0547 43.1670 main 50 10 P____P___PP___ SH061952 -24.0052 43.1546 -1 -24.2186 43.2385 99 -24.0052 43.1546 TC 25 -23.9896 43.1205 1 15 141
1952011S14042 1952 3 SI MM NOT_NAMED 1952-01-20 12:00:00 TS -24.6820 43.7386 main 15 0 O____P___OP___ jtwc_sh SH061952 -24.7000 43.8000 -1 -24.6709 43.6189 99 -24.7000 43.8000 TC 25 -24.6572 43.7354 1 16 140
1952011S14042 1952 3 SI MM NOT_NAMED 1952-01-20 15:00:00 TS -25.3106 44.3161 main 10 10 P____P___PP___ SH061952 -25.3725 44.4225 -1 -25.1515 44.0363 99 -25.3725 44.4225 TC 25 -25.3459 44.3832 1 16 140
1952011S14042 1952 3 SI MM NOT_NAMED 1952-01-20 18:00:00 TS -25.9139 44.8714 main 44 44 O____P___OO___ jtwc_sh SH061952 -26.0000 45.0000 -1 -25.6555 44.4858 99 -26.0000 45.0000 TC 25 -26.0000 45.0000 7 15 141
1952011S14042 1952 3 SI MM NOT_NAMED 1952-01-20 21:00:00 TS -26.4409 45.3503 main 89 89 P____P___PP___ SH061952 -26.5221 45.4735 -1 -26.1775 44.9622 99 -26.5221 45.4735 TC 25 -26.5417 45.4922 7 13 141
1952011S14042 1952 3 SI MM NOT_NAMED 1952-01-21 00:00:00 TS -26.9540 45.8232 main 159 159 O____P___OP___ jtwc_sh SH061952 -27.0000 45.9000 -1 -26.7124 45.4604 99 -27.0000 45.9000 TC 25 -27.0432 45.9415 7 13 141
1952011S14042 1952 3 SI MM NOT_NAMED 1952-01-21 03:00:00 TS -27.4715 46.3024 main 226 226 P____P___PP___ SH061952 -27.4999 46.3504 -1 -27.2549 45.9749 99 -27.4999 46.3504 TC 25 -27.5231 46.3700 7 13 141
1952011S14042 1952 3 SI MM NOT_NAMED 1952-01-21 06:00:00 TS -27.9846 46.7769 reunion main 297 297 O____O___OO___ jtwc_sh SH061952 -28.0000 46.8000 -1 -27.8000 46.5000 99 9.90000 -28.0000 46.8000 TC 25 -28.0000 46.8000 7 13 141
1952011S14042 1952 3 SI MM NOT_NAMED 1952-01-21 09:00:00 TS -28.4982 47.2465 main 364 364 P________PP___ SH061952 -28.4998 47.2430 -1 99 -28.4998 47.2430 TC 25 -28.4952 47.2535 7 13 141
1952011S14042 1952 3 SI MM NOT_NAMED 1952-01-21 12:00:00 TS -28.9971 47.7051 main 433 433 O________OP___ jtwc_sh SH061952 -29.0000 47.7000 -1 99 -29.0000 47.7000 TC 25 -28.9913 47.7153 7 13 140
1952011S14042 1952 3 SI MM NOT_NAMED 1952-01-21 15:00:00 TS -29.4972 48.1885 main 499 499 P________PP___ SH061952 -29.4998 48.1855 -1 99 -29.4998 48.1855 TC 25 -29.4919 48.1945 7 13 139
1952011S14042 1952 3 SI MM NOT_NAMED 1952-01-21 18:00:00 TS -30.0000 48.7000 main 567 567 O________OO___ jtwc_sh SH061952 -30.0000 48.7000 -1 99 -30.0000 48.7000 TC 25 -30.0000 48.7000 7 14 138
1952011S14042 1952 3 SI MM NOT_NAMED 1952-01-21 21:00:00 TS -30.5007 49.2367 main 636 636 P________PP___ SH061952 -30.4923 49.2357 -1 99 -30.4923 49.2357 TC 25 -30.5177 49.2387 7 14 137
1952011S14042 1952 3 SI MM NOT_NAMED 1952-01-22 00:00:00 TS -31.0142 49.8021 main 711 711 O________OP___ jtwc_sh SH061952 -31.0000 49.8000 -1 99 -31.0000 49.8000 TC 25 -31.0426 49.8063 7 14 137
1952011S14042 1952 3 SI MM NOT_NAMED 1952-01-22 03:00:00 TS -31.5508 50.3926 main 796 796 P________PP___ SH061952 -31.5406 50.3909 -1 99 -31.5406 50.3909 TC 25 -31.5712 50.3959 7 15 137
1952011S14042 1952 3 SI MM NOT_NAMED 1952-01-22 06:00:00 TS -32.1000 51.0000 main 872 O________OO___ jtwc_sh SH061952 -32.1000 51.0000 -1 -32.1000 51.0000 TC 25 -32.1000 51.0000 7 15 137

IBTrACS Databaseについて

本データベースは、米国NOAAが公開する1842年以降の世界の熱帯低気圧のベストトラックデータアーカイブInternational Best Track Archive for Climate Stewardship (IBTrACS)を、ウェブで閲覧しやすい形式に変換したものです。

最終更新日:2021-12-08